This is the latest recevied weather packets stored in our database for station/object 9M4GEK-3. If no packets are shown the sender has not sent any weather packets the latest 1 day(s).
| Time | Temp. | Humidity | Pressure | Rain* | Wind** | Luminosity | Snow |
|---|---|---|---|---|---|---|---|
| 1777890267 | 32.22° C | 56% | 1006 hPa | - | - | - | - |
| 1777889367 | 32.78° C | 54% | 1005.9 hPa | - | - | - | - |
| 1777888466 | 33.89° C | 52% | 1005.8 hPa | - | - | - | - |
| 1777887566 | 35° C | 50% | 1005.8 hPa | - | - | - | - |
| 1777887328 | 35° C | 56% | 1008.8 hPa | - | - | - | - |
| 1777886666 | 35.56° C | 49% | 1006.3 hPa | - | - | - | - |
| 1777885766 | 36.67° C | 47% | 1006.7 hPa | - | - | - | - |
| 1777885528 | 30.56° C | 66% | 1009.4 hPa | - | - | - | - |
| 1777884865 | 37.22° C | 45% | 1006.7 hPa | - | - | - | - |
| 1777883964 | 37.78° C | 45% | 1006.9 hPa | - | - | - | - |
| 1777883065 | 37.78° C | 47% | 1007 hPa | - | - | - | - |
| 1777882165 | 35.56° C | 50% | 1007.1 hPa | - | - | - | - |
| 1777881266 | 35.56° C | 50% | 1007.1 hPa | - | - | - | - |
| 1777880365 | 36.11° C | 50% | 1007.4 hPa | - | - | - | - |
| 1777879465 | 37.78° C | 47% | 1007.5 hPa | - | - | - | - |
| 1777878598 | 38.89° C | 46% | 1007.9 hPa | - | - | - | - |
| 1777878565 | 38.89° C | 46% | 1007.9 hPa | - | - | - | - |
| 1777877665 | 37.78° C | 48% | 1008.3 hPa | - | - | - | - |
| 1777876771 | 37.22° C | 51% | 1008.9 hPa | - | - | - | - |
| 1777875865 | 35° C | 56% | 1008.8 hPa | - | - | - | - |
| 1777875400 | 26.67° C | 75% | 1010.4 hPa | - | - | - | - |
| 1777875323 | 26.67° C | 75% | 1010.4 hPa | - | - | - | - |
| 1777874965 | 30.56° C | 66% | 1009.4 hPa | - | - | - | - |
| 1777874065 | 27.22° C | 75% | 1009.9 hPa | - | - | - | - |
| 1777873165 | 26.11° C | 78% | 1010.2 hPa | - | - | - | - |
* Rain since midnight (hover to see other rain measurements)
** Current wind speed in m/s (hover to see current wind gust speed)